Time;durP1;ratioP1;P1;durP2;ratioP2;P2;SDS_P1;SDS_P2;PMS_P1;PMS_P2;Temp;Humidity;BMP_temperature;BMP_pressure;BME280_temperature;BME280_humidity;BME280_pressure;Samples;Min_cycle;Max_cycle;Signal;HPM_P1;HPM_P2
2024/03/06 00:02:14;;;;;;;16.30;2.47;;;26.10;39.40;;;;;;5110609;28;20222;-52
2024/03/06 00:04:41;;;;;;;14.68;2.58;;;26.00;39.30;;;;;;5111738;28;20538;-50
2024/03/06 00:07:07;;;;;;;20.75;2.88;;;26.00;39.40;;;;;;5110289;28;20411;-51
2024/03/06 00:09:34;;;;;;;13.88;2.35;;;25.80;39.70;;;;;;5113997;28;20056;-49
2024/03/06 00:12:00;;;;;;;18.27;3.28;;;25.80;39.80;;;;;;5110272;28;20125;-54
2024/03/06 00:14:27;;;;;;;13.40;2.80;;;25.80;39.70;;;;;;5093735;28;20072;-50
2024/03/06 00:16:55;;;;;;;23.15;2.97;;;25.80;39.40;;;;;;5093449;28;20086;-51
2024/03/06 00:19:23;;;;;;;15.10;2.90;;;25.60;39.60;;;;;;5091471;28;20111;-53
2024/03/06 00:21:49;;;;;;;18.92;3.47;;;25.50;40.20;;;;;;5102259;28;20079;-51
2024/03/06 00:24:16;;;;;;;21.15;3.15;;;25.50;39.70;;;;;;5089206;28;20069;-52
2024/03/06 00:26:44;;;;;;;27.35;3.20;;;25.40;40.00;;;;;;5102464;28;20069;-53
2024/03/06 00:29:11;;;;;;;24.85;3.85;;;25.30;40.20;;;;;;5102991;28;20159;-51
2024/03/06 00:31:42;;;;;;;23.95;3.00;;;25.30;40.40;;;;;;5106598;27;20416;-51
2024/03/06 00:34:09;;;;;;;48.67;5.15;;;25.20;41.10;;;;;;5109755;28;20105;-49
2024/03/06 00:36:36;;;;;;;41.35;4.25;;;25.20;41.20;;;;;;5110323;27;20514;-53
2024/03/06 00:39:04;;;;;;;23.85;3.90;;;25.30;41.10;;;;;;5108503;28;20111;-54
2024/03/06 00:41:31;;;;;;;181.95;11.68;;;25.30;40.70;;;;;;5095161;28;20659;-53
2024/03/06 00:43:58;;;;;;;107.15;9.38;;;25.20;41.00;;;;;;5107767;28;20191;-56
2024/03/06 00:46:24;;;;;;;166.15;13.38;;;25.20;42.00;;;;;;5107383;28;20064;-56
2024/03/06 00:48:51;;;;;;;79.63;7.45;;;25.10;41.40;;;;;;5108592;28;20072;-55
2024/03/06 00:51:17;;;;;;;32.58;4.75;;;25.00;42.00;;;;;;5109308;28;20073;-53
2024/03/06 00:53:44;;;;;;;30.50;5.30;;;25.00;42.00;;;;;;5107973;28;20072;-53
2024/03/06 00:56:11;;;;;;;40.65;6.00;;;24.90;41.80;;;;;;5106139;28;20081;-51
2024/03/06 00:58:38;;;;;;;20.63;4.72;;;24.90;42.20;;;;;;5097474;28;20084;-52
2024/03/06 01:01:04;;;;;;;20.20;4.40;;;24.90;42.60;;;;;;5103353;28;20099;-51
2024/03/06 01:03:31;;;;;;;43.28;7.43;;;24.90;42.80;;;;;;5104574;28;20092;-53
2024/03/06 01:05:58;;;;;;;31.63;5.35;;;24.90;43.10;;;;;;5107675;28;20075;-52
2024/03/06 01:08:25;;;;;;;23.08;4.72;;;24.70;43.80;;;;;;5104226;28;20068;-52
2024/03/06 01:10:51;;;;;;;23.40;4.90;;;24.50;45.20;;;;;;5105666;28;20079;-54
2024/03/06 01:13:19;;;;;;;33.85;5.75;;;24.50;45.10;;;;;;5093120;28;20444;-50
2024/03/06 01:15:46;;;;;;;28.50;5.50;;;24.40;45.40;;;;;;5104265;28;20076;-53
2024/03/06 01:18:13;;;;;;;30.25;5.80;;;24.30;45.50;;;;;;5109977;28;20064;-51
2024/03/06 01:20:40;;;;;;;27.92;5.88;;;24.20;45.90;;;;;;5102806;28;20100;-51
2024/03/06 01:23:06;;;;;;;28.90;5.20;;;24.10;46.60;;;;;;5109555;28;20107;-51
2024/03/06 01:25:33;;;;;;;23.92;5.40;;;24.00;46.60;;;;;;5109353;28;20476;-53
2024/03/06 01:27:59;;;;;;;22.05;5.15;;;23.90;47.00;;;;;;5110887;28;20068;-53
2024/03/06 01:30:26;;;;;;;48.50;16.27;;;23.80;47.20;;;;;;5110748;28;20532;-50
2024/03/06 01:32:53;;;;;;;31.38;5.07;;;23.70;47.50;;;;;;5110186;28;20089;-53
2024/03/06 01:35:19;;;;;;;20.15;5.03;;;23.60;47.70;;;;;;5110534;28;20162;-54
2024/03/06 01:37:46;;;;;;;31.20;5.68;;;23.50;48.10;;;;;;5107326;28;20198;-51
2024/03/06 01:40:12;;;;;;;31.83;5.00;;;23.40;48.40;;;;;;5110104;28;20473;-54
2024/03/06 01:42:39;;;;;;;40.05;5.80;;;23.40;48.40;;;;;;5107353;28;20208;-54
2024/03/06 01:45:07;;;;;;;43.63;6.75;;;23.30;48.90;;;;;;5109491;28;20088;-54
2024/03/06 01:47:33;;;;;;;39.53;5.50;;;23.20;48.90;;;;;;5112335;28;20502;-54
2024/03/06 01:50:01;;;;;;;47.20;5.82;;;23.20;49.50;;;;;;5098876;28;20146;-50
2024/03/06 01:52:28;;;;;;;45.50;6.75;;;23.10;49.60;;;;;;5109548;28;20072;-52
2024/03/06 01:54:56;;;;;;;61.53;7.70;;;23.00;50.00;;;;;;5109801;28;20429;-50
2024/03/06 01:57:23;;;;;;;60.55;9.43;;;23.00;50.30;;;;;;5109434;28;20072;-54
2024/03/06 01:59:49;;;;;;;53.35;8.13;;;22.90;50.50;;;;;;5096398;28;20076;-53
2024/03/06 02:02:16;;;;;;;65.93;9.13;;;22.90;50.90;;;;;;5098835;28;20588;-52
2024/03/06 02:04:43;;;;;;;67.55;9.77;;;22.80;51.10;;;;;;5110097;28;20117;-53
2024/03/06 02:07:10;;;;;;;64.30;8.07;;;22.80;51.10;;;;;;5107362;28;20399;-54
2024/03/06 02:09:38;;;;;;;63.15;8.15;;;22.70;51.30;;;;;;5099264;28;20095;-53
2024/03/06 02:12:05;;;;;;;64.65;8.27;;;22.70;51.70;;;;;;5108961;28;20209;-54
2024/03/06 02:14:32;;;;;;;63.50;8.52;;;22.60;51.90;;;;;;5107600;28;20075;-53
2024/03/06 02:16:58;;;;;;;73.20;8.13;;;22.50;51.90;;;;;;5109769;28;20072;-54
2024/03/06 02:19:26;;;;;;;57.58;8.63;;;22.50;52.30;;;;;;5095934;28;20539;-49
2024/03/06 02:21:53;;;;;;;78.38;9.35;;;22.40;52.30;;;;;;5104016;28;20246;-54
2024/03/06 02:24:19;;;;;;;78.72;10.25;;;22.40;52.40;;;;;;5107317;28;20108;-51
2024/03/06 02:26:46;;;;;;;73.75;10.13;;;22.40;52.40;;;;;;5105235;28;20099;-53
2024/03/06 02:29:12;;;;;;;79.45;11.32;;;22.40;52.20;;;;;;5098805;28;20138;-54
2024/03/06 02:31:39;;;;;;;72.53;10.75;;;22.30;52.40;;;;;;5091040;28;20449;-58
2024/03/06 02:34:06;;;;;;;67.05;10.85;;;22.30;52.70;;;;;;5117358;28;20165;-56
2024/03/06 02:36:32;;;;;;;73.95;22.38;;;22.20;52.90;;;;;;5111585;28;20068;-55
2024/03/06 02:38:59;;;;;;;84.70;27.20;;;22.00;52.90;;;;;;5114458;28;20061;-55
2024/03/06 02:41:25;;;;;;;98.35;26.38;;;22.00;52.90;;;;;;5100086;28;20075;-53
2024/03/06 02:43:52;;;;;;;85.18;21.38;;;21.90;53.10;;;;;;5097894;28;20092;-53
2024/03/06 02:46:18;;;;;;;70.43;13.68;;;21.90;53.00;;;;;;5110165;28;20090;-54
2024/03/06 02:48:45;;;;;;;73.45;11.43;;;21.80;52.40;;;;;;5103345;28;20409;-53
2024/03/06 02:51:11;;;;;;;65.78;9.52;;;21.80;52.10;;;;;;5113963;28;20071;-52
2024/03/06 02:53:38;;;;;;;68.70;9.05;;;21.80;52.20;;;;;;5100960;28;20164;-59
2024/03/06 02:56:05;;;;;;;79.35;9.80;;;21.80;52.20;;;;;;5099582;28;20104;-54
2024/03/06 02:58:31;;;;;;;72.85;8.73;;;21.70;51.90;;;;;;5106879;28;20079;-51
2024/03/06 03:00:58;;;;;;;66.40;9.38;;;21.70;52.50;;;;;;5111903;28;20068;-52
2024/03/06 03:03:24;;;;;;;75.45;9.15;;;21.60;52.90;;;;;;5111425;27;20088;-52
2024/03/06 03:05:51;;;;;;;69.72;9.20;;;21.50;54.20;;;;;;5110587;28;20534;-54
2024/03/06 03:08:17;;;;;;;78.20;10.50;;;21.30;53.90;;;;;;5112892;28;20076;-51
2024/03/06 03:10:44;;;;;;;67.97;10.18;;;21.30;53.50;;;;;;5112740;28;20075;-55
2024/03/06 03:13:11;;;;;;;63.90;9.88;;;21.20;53.70;;;;;;5100007;28;20076;-52
2024/03/06 03:15:37;;;;;;;56.65;10.50;;;21.10;53.00;;;;;;5109322;28;20183;-53
2024/03/06 03:18:04;;;;;;;63.45;9.55;;;21.10;52.90;;;;;;5101576;28;20064;-55
2024/03/06 03:20:30;;;;;;;47.60;8.93;;;21.10;53.40;;;;;;5106716;28;20104;-52
2024/03/06 03:22:57;;;;;;;61.22;9.52;;;21.00;54.10;;;;;;5101224;28;20092;-55
2024/03/06 03:25:23;;;;;;;62.72;9.50;;;20.80;54.20;;;;;;5111757;28;20087;-54
2024/03/06 03:27:50;;;;;;;74.30;10.18;;;20.80;54.30;;;;;;5112142;28;20092;-53
2024/03/06 03:30:21;;;;;;;66.13;9.82;;;20.70;54.80;;;;;;5109694;28;20528;-54
2024/03/06 03:32:48;;;;;;;50.88;9.60;;;20.60;54.90;;;;;;5096352;28;20061;-53
2024/03/06 03:35:15;;;;;;;62.25;9.75;;;20.60;55.40;;;;;;5111793;28;20102;-55
2024/03/06 03:37:43;;;;;;;42.53;9.07;;;20.50;55.40;;;;;;5111658;28;20205;-51
2024/03/06 03:40:11;;;;;;;43.42;8.07;;;20.50;56.60;;;;;;5100231;28;20072;-52
2024/03/06 03:42:38;;;;;;;41.30;7.18;;;20.60;57.40;;;;;;5109554;28;20100;-50
2024/03/06 03:45:05;;;;;;;43.85;7.60;;;20.60;57.90;;;;;;5112980;28;20068;-51
2024/03/06 03:47:32;;;;;;;44.60;6.75;;;20.50;58.10;;;;;;5093820;28;20072;-51
2024/03/06 03:49:59;;;;;;;46.30;7.80;;;20.50;59.40;;;;;;5100176;28;20073;-59
2024/03/06 03:52:25;;;;;;;41.90;6.85;;;20.40;61.20;;;;;;5095828;28;20417;-52
2024/03/06 03:54:52;;;;;;;32.10;5.43;;;20.40;62.30;;;;;;5108070;28;20072;-51
2024/03/06 03:57:18;;;;;;;29.90;5.28;;;20.50;65.90;;;;;;5112710;28;20072;-51
2024/03/06 03:59:44;;;;;;;34.40;5.45;;;20.50;66.70;;;;;;5101484;28;20514;-59
2024/03/06 04:02:11;;;;;;;27.88;5.25;;;20.50;66.90;;;;;;5110492;28;20072;-51
2024/03/06 04:04:38;;;;;;;31.60;5.15;;;20.40;67.40;;;;;;5108322;28;20068;-50
2024/03/06 04:07:05;;;;;;;26.70;5.32;;;20.40;68.00;;;;;;5116763;27;20072;-54
2024/03/06 04:09:36;;;;;;;24.10;5.18;;;20.30;68.90;;;;;;5109224;27;20075;-56
2024/03/06 04:12:03;;;;;;;31.05;5.15;;;20.20;69.40;;;;;;5108302;28;20159;-55
2024/03/06 04:14:30;;;;;;;34.03;4.60;;;20.20;69.90;;;;;;5123304;27;20518;-50
2024/03/06 04:16:57;;;;;;;35.38;5.95;;;20.30;71.50;;;;;;5101339;28;20076;-53
2024/03/06 04:19:23;;;;;;;24.73;6.15;;;21.30;69.50;;;;;;5105308;27;20112;-50
2024/03/06 04:21:50;;;;;;;26.42;6.85;;;21.50;67.40;;;;;;5102702;27;20114;-48
2024/03/06 04:24:17;;;;;;;41.47;7.05;;;21.70;66.90;;;;;;5115795;27;20099;-53
2024/03/06 04:26:43;;;;;;;21.15;5.65;;;22.20;67.10;;;;;;5108580;27;20151;-51
2024/03/06 04:29:10;;;;;;;33.58;6.57;;;22.50;64.50;;;;;;5118977;27;20072;-53
2024/03/06 04:31:37;;;;;;;28.40;5.80;;;22.70;64.30;;;;;;5108405;27;20080;-54
2024/03/06 04:34:03;;;;;;;34.78;6.53;;;22.60;64.30;;;;;;5113512;28;20413;-52
2024/03/06 04:36:29;;;;;;;32.83;6.10;;;22.50;65.00;;;;;;5112460;28;20068;-52
2024/03/06 04:38:56;;;;;;;29.73;6.60;;;22.70;65.20;;;;;;5109066;28;20114;-53
2024/03/06 04:41:23;;;;;;;21.10;6.10;;;22.40;64.60;;;;;;5111262;28;20520;-56
2024/03/06 04:43:52;;;;;;;21.45;6.68;;;22.10;66.00;;;;;;5124872;27;20114;-53
2024/03/06 04:46:19;;;;;;;38.38;8.27;;;22.00;66.40;;;;;;5111314;27;20075;-52
2024/03/06 04:48:47;;;;;;;34.00;6.47;;;22.00;66.40;;;;;;5108510;27;20067;-52
2024/03/06 04:51:13;;;;;;;33.10;6.43;;;21.90;66.80;;;;;;5117632;27;20082;-55
2024/03/06 04:53:42;;;;;;;25.88;6.85;;;21.80;67.70;;;;;;5120321;27;20134;-52
2024/03/06 04:56:08;;;;;;;25.65;7.38;;;21.90;67.70;;;;;;5110720;27;20064;-51
2024/03/06 04:58:35;;;;;;;36.60;8.85;;;21.80;67.70;;;;;;5108708;27;20075;-52
2024/03/06 05:01:01;;;;;;;39.55;7.32;;;21.60;68.10;;;;;;5105331;27;20065;-51
2024/03/06 05:03:27;;;;;;;35.55;6.80;;;21.40;68.70;;;;;;5108908;27;20561;-51
2024/03/06 05:05:54;;;;;;;33.70;6.63;;;21.50;68.10;;;;;;5115646;27;20549;-53
2024/03/06 05:08:20;;;;;;;41.45;6.25;;;21.30;68.60;;;;;;5103234;28;20069;-51
2024/03/06 05:10:47;;;;;;;34.88;5.97;;;21.60;68.40;;;;;;5101397;27;20137;-49
2024/03/06 05:13:13;;;;;;;31.80;6.80;;;21.70;70.10;;;;;;5103453;27;20072;-52
2024/03/06 05:15:40;;;;;;;27.48;6.65;;;21.40;68.90;;;;;;5107041;27;20110;-51
2024/03/06 05:18:08;;;;;;;30.98;7.18;;;21.20;69.80;;;;;;5105452;27;20159;-53
2024/03/06 05:20:34;;;;;;;30.20;6.72;;;21.20;70.10;;;;;;5112677;27;20115;-52
2024/03/06 05:23:01;;;;;;;28.60;7.18;;;21.10;70.10;;;;;;5106977;27;20149;-49
2024/03/06 05:25:27;;;;;;;33.35;8.18;;;21.10;70.60;;;;;;5092449;28;20441;-48
2024/03/06 05:27:54;;;;;;;27.35;7.03;;;21.00;71.60;;;;;;5104620;27;20065;-51
2024/03/06 05:30:20;;;;;;;36.67;7.75;;;20.80;70.90;;;;;;5115995;27;20965;-49
2024/03/06 05:32:47;;;;;;;26.55;7.30;;;20.90;71.00;;;;;;5108898;28;20084;-57
2024/03/06 05:35:13;;;;;;;27.98;6.57;;;21.00;72.00;;;;;;5110794;28;20104;-52
2024/03/06 05:37:40;;;;;;;38.97;7.88;;;20.80;71.20;;;;;;5108900;28;20068;-52
2024/03/06 05:40:07;;;;;;;34.45;7.65;;;20.80;71.50;;;;;;5103475;28;20092;-49
2024/03/06 05:42:34;;;;;;;47.97;8.65;;;20.80;71.20;;;;;;5108112;28;20099;-53
2024/03/06 05:45:10;;;;;;;46.83;9.35;;;20.70;71.40;;;;;;5102126;28;20078;-52
2024/03/06 05:47:38;;;;;;;38.03;10.68;;;20.50;71.80;;;;;;5103686;28;20170;-51
2024/03/06 05:50:05;;;;;;;43.55;11.13;;;20.60;71.20;;;;;;5099632;28;20107;-51
2024/03/06 05:52:34;;;;;;;34.90;10.70;;;20.50;71.70;;;;;;5088052;28;20083;-52
2024/03/06 05:55:00;;;;;;;58.63;11.15;;;20.40;72.20;;;;;;5095233;28;20081;-53
2024/03/06 05:57:27;;;;;;;44.22;10.50;;;20.40;72.00;;;;;;5092007;28;20075;-51
2024/03/06 05:59:53;;;;;;;44.45;10.13;;;20.30;71.60;;;;;;5096599;28;20064;-48
2024/03/06 06:02:20;;;;;;;58.67;10.90;;;20.40;71.10;;;;;;5121030;27;20123;-51
2024/03/06 06:04:47;;;;;;;49.85;11.00;;;20.50;71.10;;;;;;5091442;28;20111;-52
2024/03/06 06:07:14;;;;;;;66.95;9.10;;;20.60;70.20;;;;;;5111774;28;20080;-52
2024/03/06 06:09:40;;;;;;;51.47;8.85;;;20.50;70.00;;;;;;5106418;28;20076;-51
2024/03/06 06:12:07;;;;;;;60.35;9.63;;;20.50;70.20;;;;;;5109104;28;20065;-52
2024/03/06 06:14:33;;;;;;;46.10;8.75;;;20.40;71.50;;;;;;5090906;28;20060;-48
2024/03/06 06:17:00;;;;;;;45.88;9.25;;;20.40;71.30;;;;;;5111296;28;20080;-49
2024/03/06 06:19:26;;;;;;;41.65;9.45;;;20.40;71.10;;;;;;5109808;28;20111;-50
2024/03/06 06:21:55;;;;;;;33.78;8.45;;;20.30;71.70;;;;;;5105328;28;20437;-50
2024/03/06 06:24:21;;;;;;;40.65;9.38;;;20.10;72.30;;;;;;5112451;28;20100;-52
2024/03/06 06:26:48;;;;;;;45.85;9.32;;;20.00;73.60;;;;;;5113968;28;20078;-52
2024/03/06 06:29:14;;;;;;;48.05;9.45;;;20.10;72.30;;;;;;5109689;28;20077;-49
2024/03/06 06:31:40;;;;;;;54.97;10.00;;;20.00;73.20;;;;;;5101583;28;20072;-52
2024/03/06 06:34:07;;;;;;;46.25;9.15;;;20.10;72.30;;;;;;5098943;28;20068;-51
2024/03/06 06:36:34;;;;;;;52.83;8.65;;;20.10;72.00;;;;;;5110448;27;20099;-54
2024/03/06 06:39:00;;;;;;;54.33;16.17;;;20.20;70.70;;;;;;5109619;28;20151;-51
2024/03/06 06:41:27;;;;;;;50.25;11.10;;;20.00;70.50;;;;;;5104614;28;20214;-49
2024/03/06 06:43:54;;;;;;;45.13;11.13;;;19.90;70.50;;;;;;5103481;28;20099;-50
2024/03/06 06:46:21;;;;;;;42.55;9.20;;;19.80;70.40;;;;;;5102381;28;20075;-53
2024/03/06 06:48:48;;;;;;;41.78;8.93;;;19.80;68.90;;;;;;5112388;28;20068;-50
2024/03/06 06:51:15;;;;;;;41.30;9.02;;;19.70;69.40;;;;;;5109832;27;20103;-50
2024/03/06 06:53:42;;;;;;;33.00;8.27;;;19.70;68.40;;;;;;5110596;28;20067;-50
2024/03/06 06:56:09;;;;;;;41.85;7.78;;;19.70;66.70;;;;;;5100302;28;20137;-50
2024/03/06 06:58:35;;;;;;;33.35;7.22;;;19.70;65.80;;;;;;5102649;28;20086;-51
2024/03/06 07:01:03;;;;;;;50.13;22.08;;;19.60;64.70;;;;;;5108054;28;20071;-49
2024/03/06 07:03:30;;;;;;;31.98;5.43;;;19.50;64.40;;;;;;5113149;28;20106;-50
2024/03/06 07:05:57;;;;;;;29.33;5.72;;;19.30;62.50;;;;;;5110841;28;20155;-51
2024/03/06 07:08:24;;;;;;;25.35;5.47;;;19.40;62.20;;;;;;5098544;28;20087;-53
2024/03/06 07:10:53;;;;;;;38.67;6.32;;;19.40;61.60;;;;;;5108293;27;20075;-53
2024/03/06 07:13:20;;;;;;;33.47;7.22;;;19.30;61.50;;;;;;5110004;28;20064;-48
2024/03/06 07:15:47;;;;;;;29.38;8.10;;;19.20;62.60;;;;;;5096674;28;20076;-49
2024/03/06 07:18:13;;;;;;;33.90;8.43;;;19.10;62.60;;;;;;5110494;28;20095;-52
2024/03/06 07:20:41;;;;;;;33.00;8.25;;;19.00;62.50;;;;;;5107408;27;20131;-53
2024/03/06 07:23:07;;;;;;;48.85;23.20;;;19.10;62.40;;;;;;5100500;28;20096;-58
2024/03/06 07:25:34;;;;;;;48.47;9.27;;;18.90;64.30;;;;;;5101000;28;21429;-52
2024/03/06 07:28:00;;;;;;;37.65;9.35;;;18.90;66.00;;;;;;5101711;28;20072;-49
2024/03/06 07:30:29;;;;;;;33.92;8.75;;;18.70;66.50;;;;;;5096597;28;20109;-49
2024/03/06 07:32:57;;;;;;;23.83;7.90;;;18.70;66.80;;;;;;5106558;28;20437;-48
2024/03/06 07:35:24;;;;;;;42.15;7.75;;;18.70;66.50;;;;;;5110076;28;20087;-51
2024/03/06 07:37:50;;;;;;;35.08;7.30;;;18.70;64.90;;;;;;5108593;28;20102;-52
2024/03/06 07:40:17;;;;;;;18.67;5.80;;;18.60;63.30;;;;;;5099629;28;20495;-53
2024/03/06 07:42:43;;;;;;;13.93;4.15;;;18.60;61.80;;;;;;5110818;28;20116;-49
2024/03/06 07:45:10;;;;;;;10.18;3.90;;;18.50;60.60;;;;;;5109849;28;20064;-51
2024/03/06 07:47:41;;;;;;;12.57;3.83;;;18.50;60.70;;;;;;5105487;28;20100;-51
2024/03/06 07:50:08;;;;;;;16.58;3.45;;;18.40;60.50;;;;;;5106437;28;20092;-53
2024/03/06 07:52:35;;;;;;;17.13;3.58;;;18.30;62.00;;;;;;5105789;28;20506;-51
2024/03/06 07:55:03;;;;;;;10.27;3.30;;;18.30;62.00;;;;;;5099699;28;20072;-48
2024/03/06 07:57:29;;;;;;;10.13;3.60;;;18.40;62.70;;;;;;5104776;28;20098;-53
2024/03/06 07:59:55;;;;;;;16.25;3.92;;;18.50;63.40;;;;;;5092852;28;20081;-50
2024/03/06 08:02:22;;;;;;;10.38;3.67;;;18.50;64.10;;;;;;5101337;28;20113;-49
2024/03/06 08:04:49;;;;;;;18.92;3.78;;;18.40;64.30;;;;;;5097022;28;20070;-53
2024/03/06 08:07:15;;;;;;;25.92;3.70;;;18.30;64.70;;;;;;5104199;28;20088;-48
2024/03/06 08:09:43;;;;;;;15.18;4.05;;;18.30;64.40;;;;;;5102854;28;20080;-50
2024/03/06 08:12:09;;;;;;;12.90;4.00;;;18.20;65.30;;;;;;5104380;28;20398;-52
2024/03/06 08:14:36;;;;;;;15.55;3.72;;;18.20;65.00;;;;;;5108051;28;20109;-52
2024/03/06 08:17:02;;;;;;;18.15;4.03;;;18.00;66.00;;;;;;5108528;28;20069;-52
2024/03/06 08:19:29;;;;;;;15.43;3.80;;;17.90;66.80;;;;;;5025240;28;2363659;-53
2024/03/06 08:21:55;;;;;;;15.45;4.00;;;17.70;67.10;;;;;;5109691;28;20155;-52
2024/03/06 08:24:22;;;;;;;13.90;4.35;;;17.90;66.70;;;;;;5096985;28;20104;-52
2024/03/06 08:26:49;;;;;;;13.40;3.65;;;17.90;67.10;;;;;;5110118;28;20113;-52
2024/03/06 08:29:15;;;;;;;14.90;4.32;;;17.80;67.50;;;;;;5106873;28;20075;-49
2024/03/06 08:31:41;;;;;;;13.32;3.50;;;17.90;67.90;;;;;;5109367;28;20064;-51
2024/03/06 08:34:08;;;;;;;14.48;3.65;;;17.80;67.70;;;;;;5112313;28;20076;-52
2024/03/06 08:36:34;;;;;;;13.30;4.78;;;17.70;68.20;;;;;;5112136;28;20074;-54
2024/03/06 08:39:01;;;;;;;15.88;4.00;;;17.60;67.80;;;;;;5112130;28;20471;-51
2024/03/06 08:41:27;;;;;;;11.88;3.45;;;17.60;68.40;;;;;;5109887;28;20129;-51
2024/03/06 08:43:54;;;;;;;15.10;4.57;;;17.40;68.00;;;;;;5103418;28;20100;-52
2024/03/06 08:46:20;;;;;;;15.30;4.60;;;17.30;69.60;;;;;;5108897;28;20164;-52
2024/03/06 08:48:47;;;;;;;14.52;4.05;;;17.30;70.00;;;;;;5110215;28;20092;-49
2024/03/06 08:51:14;;;;;;;15.80;4.78;;;17.30;69.70;;;;;;5109296;28;20068;-49
2024/03/06 08:53:40;;;;;;;16.17;4.15;;;17.20;69.70;;;;;;5101112;28;20103;-48
2024/03/06 08:56:07;;;;;;;16.88;3.90;;;17.40;69.60;;;;;;5099057;28;20064;-50
2024/03/06 08:58:33;;;;;;;14.55;3.78;;;17.30;69.60;;;;;;5109424;28;20592;-49
2024/03/06 09:01:00;;;;;;;11.57;3.80;;;17.20;70.30;;;;;;5108988;28;20151;-49
2024/03/06 09:03:27;;;;;;;13.95;3.10;;;17.30;69.60;;;;;;5101433;27;20100;-49
2024/03/06 09:05:53;;;;;;;7.97;3.00;;;17.20;68.40;;;;;;5109687;28;20072;-51
2024/03/06 09:08:19;;;;;;;10.55;3.40;;;17.20;67.50;;;;;;5110206;28;20153;-48
2024/03/06 09:10:46;;;;;;;15.10;2.70;;;17.10;66.60;;;;;;5100698;28;20088;-49
2024/03/06 09:13:12;;;;;;;12.00;2.75;;;16.90;66.30;;;;;;5103042;28;20072;-52
2024/03/06 09:15:40;;;;;;;10.98;2.38;;;16.90;66.50;;;;;;5108879;28;20533;-51
2024/03/06 09:18:07;;;;;;;16.77;3.10;;;16.90;66.70;;;;;;5108549;28;20072;-50
2024/03/06 09:20:33;;;;;;;5.75;2.60;;;16.90;67.00;;;;;;5108854;28;20107;-48
2024/03/06 09:23:00;;;;;;;7.95;3.10;;;17.00;67.30;;;;;;5105446;28;20435;-49
2024/03/06 09:25:26;;;;;;;16.17;3.08;;;17.00;67.60;;;;;;5107963;28;20071;-49
2024/03/06 09:27:53;;;;;;;10.00;3.00;;;17.00;68.10;;;;;;5099302;28;20092;-48
2024/03/06 09:30:20;;;;;;;8.65;2.75;;;17.00;68.40;;;;;;5101833;28;20072;-51
2024/03/06 09:32:46;;;;;;;7.25;2.72;;;17.00;68.90;;;;;;5099070;28;20064;-48
2024/03/06 09:35:14;;;;;;;10.32;2.95;;;17.00;69.40;;;;;;5107890;27;20421;-58
2024/03/06 09:37:40;;;;;;;9.43;2.70;;;17.00;69.60;;;;;;5101271;28;20522;-49
2024/03/06 09:40:08;;;;;;;9.70;2.88;;;16.90;69.80;;;;;;5103641;28;20068;-49
2024/03/06 09:42:34;;;;;;;8.30;2.75;;;17.00;69.90;;;;;;5109589;28;20141;-50
2024/03/06 09:45:01;;;;;;;10.40;2.85;;;16.90;69.80;;;;;;5108619;28;20155;-48
2024/03/06 09:47:31;;;;;;;9.50;3.08;;;17.00;69.60;;;;;;5107765;28;20091;-52
2024/03/06 09:49:57;;;;;;;12.20;2.88;;;17.00;69.10;;;;;;5108758;28;20069;-54
2024/03/06 09:52:24;;;;;;;8.90;3.10;;;17.10;68.60;;;;;;5108131;28;20099;-51
2024/03/06 09:54:52;;;;;;;6.50;2.65;;;17.10;68.00;;;;;;5107566;28;20068;-49
2024/03/06 09:57:19;;;;;;;5.75;2.42;;;17.20;67.10;;;;;;5102866;28;20154;-51
2024/03/06 09:59:45;;;;;;;6.18;2.55;;;17.20;66.80;;;;;;5107524;28;20083;-50
2024/03/06 10:02:25;;;;;;;6.65;2.50;;;17.20;66.20;;;;;;5106135;28;20085;-50
2024/03/06 10:04:52;;;;;;;6.53;2.30;;;17.30;65.30;;;;;;5104493;28;20072;-51
2024/03/06 10:07:19;;;;;;;10.27;2.38;;;17.30;64.90;;;;;;5106220;28;20079;-51
2024/03/06 10:09:47;;;;;;;9.07;2.75;;;17.30;64.30;;;;;;5107947;28;20499;-50
2024/03/06 10:12:18;;;;;;;4.65;2.33;;;17.40;64.30;;;;;;5098655;28;20092;-51
2024/03/06 10:14:54;;;;;;;4.63;2.08;;;17.40;63.70;;;;;;5106450;28;20425;-50
2024/03/06 10:17:23;;;;;;;5.47;2.10;;;17.50;63.20;;;;;;5107341;28;20158;-54
2024/03/06 10:19:52;;;;;;;5.70;2.03;;;17.50;63.00;;;;;;5108311;28;20135;-52
2024/03/06 10:22:20;;;;;;;5.63;1.98;;;17.50;62.60;;;;;;5105723;28;20155;-52
2024/03/06 10:24:47;;;;;;;5.05;2.10;;;17.50;62.60;;;;;;5108425;28;20094;-52
2024/03/06 10:27:21;;;;;;;4.88;2.25;;;17.50;62.70;;;;;;5106009;28;20192;-49
2024/03/06 10:30:06;;;;;;;7.85;2.47;;;17.50;62.30;;;;;;5100117;28;20066;-52
2024/03/06 10:32:32;;;;;;;8.70;2.38;;;17.50;61.80;;;;;;5099657;28;20068;-50
2024/03/06 10:34:59;;;;;;;5.13;2.50;;;17.50;61.70;;;;;;5101123;28;21018;-51
2024/03/06 10:37:25;;;;;;;2.47;1.70;;;17.50;61.30;;;;;;5101160;28;20567;-49
2024/03/06 10:39:54;;;;;;;4.38;2.17;;;17.50;61.30;;;;;;5108867;28;20175;-48
2024/03/06 10:42:22;;;;;;;5.13;2.10;;;17.60;61.30;;;;;;5107558;28;20076;-52
2024/03/06 10:44:58;;;;;;;5.95;1.90;;;17.60;61.70;;;;;;5108611;28;20099;-50
2024/03/06 10:47:26;;;;;;;4.25;2.13;;;17.50;61.80;;;;;;5107766;28;20194;-48
2024/03/06 10:49:54;;;;;;;3.30;1.73;;;17.50;61.90;;;;;;5105516;28;20064;-50
2024/03/06 10:52:21;;;;;;;9.50;2.15;;;17.40;62.10;;;;;;5105150;28;20072;-52
2024/03/06 10:54:49;;;;;;;3.78;1.75;;;17.50;62.90;;;;;;5103003;28;20434;-52
2024/03/06 10:57:15;;;;;;;3.30;1.83;;;17.50;62.90;;;;;;5101614;28;20108;-49
2024/03/06 10:59:43;;;;;;;7.82;1.75;;;17.50;63.30;;;;;;5105071;28;20522;-53
2024/03/06 11:02:12;;;;;;;5.20;2.03;;;17.50;63.20;;;;;;5107425;28;20437;-53
2024/03/06 11:04:41;;;;;;;4.50;1.90;;;17.40;62.90;;;;;;5091091;28;20340;-55
2024/03/06 11:07:09;;;;;;;5.13;1.90;;;17.40;63.10;;;;;;5107259;28;20159;-52
2024/03/06 11:09:38;;;;;;;4.97;1.50;;;17.30;63.10;;;;;;5108412;28;20536;-51
2024/03/06 11:12:08;;;;;;;6.60;1.73;;;17.30;63.30;;;;;;5098668;28;20076;-52
2024/03/06 11:14:38;;;;;;;4.75;2.22;;;17.30;63.40;;;;;;5097800;28;20484;-51
2024/03/06 11:17:11;;;;;;;6.00;2.20;;;17.30;64.00;;;;;;5103995;28;20556;-52
2024/03/06 11:19:59;;;;;;;6.50;1.83;;;17.30;63.80;;;;;;5100490;28;20112;-52
2024/03/06 11:22:59;;;;;;;7.47;1.98;;;17.20;63.60;;;;;;5101813;28;20589;-48
2024/03/06 11:26:03;;;;;;;4.72;1.77;;;17.20;63.50;;;;;;5111195;28;20227;-50
2024/03/06 11:28:40;;;;;;;4.40;2.22;;;17.20;63.70;;;;;;5066426;28;20118;-49
2024/03/06 11:31:18;;;;;;;6.25;1.85;;;17.20;63.80;;;;;;5109445;28;20072;-53
2024/03/06 11:33:46;;;;;;;7.57;1.85;;;17.10;63.60;;;;;;5111178;28;20076;-53
2024/03/06 11:36:22;;;;;;;5.45;2.33;;;17.10;63.70;;;;;;5111273;28;20429;-52
2024/03/06 11:39:08;;;;;;;6.53;2.35;;;17.20;64.40;;;;;;5115993;28;20067;-53
2024/03/06 11:41:43;;;;;;;5.53;1.75;;;17.10;64.30;;;;;;5113445;28;20068;-50
2024/03/06 11:44:16;;;;;;;4.53;2.00;;;17.00;64.40;;;;;;5110105;28;20103;-50
2024/03/06 11:46:44;;;;;;;5.10;1.83;;;17.10;65.10;;;;;;5106637;28;20072;-50
2024/03/06 11:49:25;;;;;;;6.45;2.15;;;17.00;65.30;;;;;;5110596;28;20418;-50
2024/03/06 11:51:57;;;;;;;5.00;2.17;;;16.90;66.10;;;;;;5109305;27;20129;-51
2024/03/06 11:54:27;;;;;;;9.65;2.38;;;16.90;66.10;;;;;;5098838;28;20538;-51
2024/03/06 11:56:56;;;;;;;7.05;1.80;;;16.90;66.10;;;;;;5108657;28;20513;-49
2024/03/06 11:59:30;;;;;;;6.65;2.15;;;16.80;65.90;;;;;;5111334;28;20064;-53
2024/03/06 12:02:01;;;;;;;6.35;2.40;;;16.80;66.10;;;;;;5109448;28;20131;-52
2024/03/06 12:04:27;;;;;;;7.85;2.30;;;16.80;66.20;;;;;;5107979;28;20184;-50
2024/03/06 12:07:05;;;;;;;6.18;2.33;;;16.80;66.20;;;;;;5099604;28;20103;-51
2024/03/06 12:09:33;;;;;;;3.08;2.00;;;16.80;66.70;;;;;;5109169;28;20064;-50
2024/03/06 12:11:59;;;;;;;5.88;2.72;;;16.80;67.30;;;;;;5109474;28;20541;-50
2024/03/06 12:14:26;;;;;;;4.55;2.28;;;16.70;67.50;;;;;;5094908;28;20072;-49
2024/03/06 12:16:57;;;;;;;6.82;2.30;;;16.60;68.40;;;;;;5110277;28;20522;-49
2024/03/06 12:19:32;;;;;;;5.80;2.75;;;16.60;68.20;;;;;;5109221;28;20112;-51
2024/03/06 12:22:08;;;;;;;9.30;2.78;;;16.50;68.90;;;;;;5108205;28;20071;-48
2024/03/06 12:24:34;;;;;;;11.45;2.72;;;16.50;68.50;;;;;;5109551;28;20139;-50
2024/03/06 12:27:05;;;;;;;13.00;2.55;;;16.40;68.80;;;;;;5109360;28;20064;-51
2024/03/06 12:29:33;;;;;;;7.15;2.80;;;16.40;70.20;;;;;;5100495;28;20076;-49
2024/03/06 12:32:00;;;;;;;7.57;2.58;;;16.30;69.90;;;;;;5103343;28;20112;-49
2024/03/06 12:34:27;;;;;;;4.22;2.28;;;16.20;70.20;;;;;;5099974;28;20562;-51
2024/03/06 12:36:53;;;;;;;4.88;2.47;;;16.30;70.70;;;;;;5108686;28;20072;-49
2024/03/06 12:39:23;;;;;;;9.10;2.35;;;16.30;71.00;;;;;;5110027;28;20068;-49
2024/03/06 12:41:52;;;;;;;8.95;2.55;;;16.30;70.70;;;;;;5105467;28;20073;-53